createdAt,value
2019-03-06T00:00:21.161Z,1009.13
2019-03-06T00:01:31.114Z,1009.13
2019-03-06T00:02:43.032Z,1009.07
2019-03-06T00:03:52.738Z,1009.1
2019-03-06T00:05:02.227Z,1009.07
2019-03-06T00:06:16.577Z,1009.08
2019-03-06T00:07:26.708Z,1009.09
2019-03-06T00:08:36.418Z,1009.05
2019-03-06T00:09:46.149Z,1009.08
2019-03-06T00:10:56.179Z,1009.08
2019-03-06T00:12:05.789Z,1009.07
2019-03-06T00:13:15.566Z,1009.06
2019-03-06T00:14:25.642Z,1009.05
2019-03-06T00:15:35.856Z,1009.08
2019-03-06T00:16:45.497Z,1009.05
2019-03-06T00:17:55.212Z,1009.04
2019-03-06T00:19:05.167Z,1009.1
2019-03-06T00:20:14.877Z,1009.1
2019-03-06T00:21:24.859Z,1009.11
2019-03-06T00:22:34.314Z,1009.13
2019-03-06T00:23:43.777Z,1009.13
2019-03-06T00:24:53.238Z,1009.13
2019-03-06T00:26:03.214Z,1009.13
2019-03-06T00:27:12.933Z,1009.12
2019-03-06T00:28:22.399Z,1009.13
2019-03-06T00:29:31.853Z,1009.14
2019-03-06T00:30:41.573Z,1009.12
2019-03-06T00:31:51.294Z,1009.12
2019-03-06T00:33:01.319Z,1009.17
2019-03-06T00:34:11.019Z,1009.13
2019-03-06T00:35:20.762Z,1009.15
2019-03-06T00:36:30.506Z,1009.18
2019-03-06T00:37:40.215Z,1009.21
2019-03-06T00:38:50.182Z,1009.21
2019-03-06T00:40:00.351Z,1009.23
2019-03-06T00:41:09.886Z,1009.23
2019-03-06T00:42:19.597Z,1009.18
2019-03-06T00:43:29.306Z,1009.2
2019-03-06T00:44:39.265Z,1009.21
2019-03-06T00:45:49.216Z,1009.2
2019-03-06T00:46:58.681Z,1009.23
2019-03-06T00:48:08.661Z,1009.26
2019-03-06T00:49:18.564Z,1009.25
2019-03-06T00:50:28.731Z,1009.21
2019-03-06T00:51:38.553Z,1009.2
2019-03-06T00:52:48.809Z,1009.18
2019-03-06T00:53:58.790Z,1009.19
2019-03-06T00:55:08.495Z,1009.19
2019-03-06T00:56:17.954Z,1009.16
2019-03-06T00:57:27.923Z,1009.17
2019-03-06T00:58:37.130Z,1009.15
2019-03-06T00:59:46.579Z,1009.16
2019-03-06T01:00:56.524Z,1009.18
2019-03-06T01:02:06.469Z,1009.21
2019-03-06T01:03:16.171Z,1009.23
2019-03-06T01:04:25.631Z,1009.2
2019-03-06T01:05:35.086Z,1009.15
2019-03-06T01:06:44.294Z,1009.17
2019-03-06T01:07:53.765Z,1009.13
2019-03-06T01:09:03.725Z,1009.11
2019-03-06T01:10:13.450Z,1009.14
2019-03-06T01:11:22.911Z,1009.14
2019-03-06T01:12:32.870Z,1009.15
2019-03-06T01:13:42.834Z,1009.13
2019-03-06T01:14:52.556Z,1009.11
2019-03-06T01:16:02.275Z,1009.11
2019-03-06T01:17:11.753Z,1009.11
2019-03-06T01:18:21.468Z,1009.1
2019-03-06T01:19:31.428Z,1009.06
2019-03-06T01:20:41.131Z,1009.05
2019-03-06T01:21:50.845Z,1009.08
2019-03-06T01:23:00.317Z,1009.05
2019-03-06T01:24:10.269Z,1009.05
2019-03-06T01:25:20.502Z,1009.05
2019-03-06T01:26:30.477Z,1009.03
2019-03-06T01:27:40.828Z,1009.03
2019-03-06T01:28:51.222Z,1009.03
2019-03-06T01:30:01.282Z,1008.97
2019-03-06T01:31:11.490Z,1008.94
2019-03-06T01:32:21.438Z,1008.97
2019-03-06T01:33:31.154Z,1008.96
2019-03-06T01:34:40.619Z,1008.95
2019-03-06T01:35:50.319Z,1008.95
2019-03-06T01:37:00.262Z,1008.93
2019-03-06T01:38:10.218Z,1008.94
2019-03-06T01:39:19.432Z,1008.93
2019-03-06T01:40:29.387Z,1008.94
2019-03-06T01:41:38.841Z,1008.97
2019-03-06T01:42:48.316Z,1008.98
2019-03-06T01:43:58.020Z,1008.94
2019-03-06T01:45:07.495Z,1008.96
2019-03-06T01:46:16.970Z,1008.96
2019-03-06T01:47:26.687Z,1008.95
2019-03-06T01:48:35.891Z,1008.92
2019-03-06T01:49:45.592Z,1008.93
2019-03-06T01:50:55.058Z,1008.83
2019-03-06T01:52:04.526Z,1008.84
2019-03-06T01:53:14.232Z,1008.8
2019-03-06T01:54:23.940Z,1008.8
2019-03-06T01:55:33.652Z,1008.79
2019-03-06T01:56:43.360Z,1008.77
2019-03-06T01:57:53.343Z,1008.74
2019-03-06T01:59:04.482Z,1008.73
2019-03-06T02:00:14.442Z,1008.73
2019-03-06T02:01:24.715Z,1008.7
2019-03-06T02:02:35.262Z,1008.77
2019-03-06T02:03:45.003Z,1008.76
2019-03-06T02:04:54.916Z,1008.73
2019-03-06T02:06:05.055Z,1008.7
2019-03-06T02:07:15.117Z,1008.74
2019-03-06T02:08:24.700Z,1008.68
2019-03-06T02:09:34.419Z,1008.71
2019-03-06T02:10:44.387Z,1008.73
2019-03-06T02:11:54.105Z,1008.72
2019-03-06T02:13:03.810Z,1008.71
2019-03-06T02:14:13.513Z,1008.73
2019-03-06T02:15:22.729Z,1008.65
2019-03-06T02:16:32.710Z,1008.61
2019-03-06T02:17:42.425Z,1008.57
2019-03-06T02:18:52.376Z,1008.61
2019-03-06T02:20:02.077Z,1008.57
2019-03-06T02:21:12.049Z,1008.55
2019-03-06T02:22:22.017Z,1008.54
2019-03-06T02:23:31.748Z,1008.51
2019-03-06T02:24:41.227Z,1008.53
2019-03-06T02:25:51.201Z,1008.49
2019-03-06T02:27:00.915Z,1008.46
2019-03-06T02:28:10.872Z,1008.45
2019-03-06T02:29:20.361Z,1008.51
2019-03-06T02:30:30.066Z,1008.47
2019-03-06T02:31:40.042Z,1008.51
2019-03-06T02:32:50.021Z,1008.45
2019-03-06T02:33:59.266Z,1008.49
2019-03-06T02:35:09.259Z,1008.42
2019-03-06T02:36:19.229Z,1008.37
2019-03-06T02:37:29.237Z,1008.37
2019-03-06T02:38:38.970Z,1008.35
2019-03-06T02:39:48.944Z,1008.38
2019-03-06T02:40:59.300Z,1008.36
2019-03-06T02:42:09.510Z,1008.33
2019-03-06T02:43:19.805Z,1008.32
2019-03-06T02:44:30.345Z,1008.33
2019-03-06T02:45:43.062Z,1008.31
2019-03-06T02:46:53.048Z,1008.31
2019-03-06T02:48:03.125Z,1008.29
2019-03-06T02:49:13.144Z,1008.28
2019-03-06T02:50:23.154Z,1008.27
2019-03-06T02:51:33.133Z,1008.34
2019-03-06T02:52:42.867Z,1008.31
2019-03-06T02:53:52.836Z,1008.25
2019-03-06T02:55:02.556Z,1008.25
2019-03-06T02:56:12.277Z,1008.23
2019-03-06T02:57:22.048Z,1008.21
2019-03-06T02:58:31.784Z,1008.19
2019-03-06T02:59:41.509Z,1008.16
2019-03-06T03:00:50.972Z,1008.15
2019-03-06T03:02:00.685Z,1008.14
2019-03-06T03:03:10.152Z,1008.17
2019-03-06T03:04:20.119Z,1008.06
2019-03-06T03:05:29.864Z,1008.05
2019-03-06T03:06:39.343Z,1008.03
2019-03-06T03:07:49.315Z,1008.03
2019-03-06T03:08:59.050Z,1008.01
2019-03-06T03:10:09.010Z,1007.94
2019-03-06T03:11:18.999Z,1007.91
2019-03-06T03:12:29.004Z,1007.92
2019-03-06T03:13:38.487Z,1007.89
2019-03-06T03:14:48.248Z,1007.87
2019-03-06T03:15:57.997Z,1007.81
2019-03-06T03:17:07.968Z,1007.82
2019-03-06T03:18:17.805Z,1007.79
2019-03-06T03:19:28.050Z,1007.78
2019-03-06T03:20:38.154Z,1007.78
2019-03-06T03:21:48.522Z,1007.74
2019-03-06T03:22:58.947Z,1007.76
2019-03-06T03:24:09.074Z,1007.8
2019-03-06T03:25:18.976Z,1007.77
2019-03-06T03:26:28.737Z,1007.76
2019-03-06T03:27:38.728Z,1007.83
2019-03-06T03:28:48.695Z,1007.83
2019-03-06T03:29:58.204Z,1007.84
2019-03-06T03:31:08.233Z,1007.83
2019-03-06T03:32:18.207Z,1007.83
2019-03-06T03:33:27.961Z,1007.78
2019-03-06T03:34:37.808Z,1007.79
2019-03-06T03:35:47.860Z,1007.76
2019-03-06T03:36:57.336Z,1007.8
2019-03-06T03:38:06.845Z,1007.78
2019-03-06T03:39:16.864Z,1007.76
2019-03-06T03:40:26.617Z,1007.77
2019-03-06T03:41:36.075Z,1007.74
2019-03-06T03:42:45.794Z,1007.77
2019-03-06T03:43:55.787Z,1007.74
2019-03-06T03:45:05.766Z,1007.63
2019-03-06T03:46:15.821Z,1007.57
2019-03-06T03:47:25.778Z,1007.53
2019-03-06T03:48:35.748Z,1007.51
2019-03-06T03:49:45.726Z,1007.48
2019-03-06T03:50:55.453Z,1007.47
2019-03-06T03:52:05.428Z,1007.47
2019-03-06T03:53:15.153Z,1007.44
2019-03-06T03:54:24.902Z,1007.44
2019-03-06T03:55:34.881Z,1007.46
2019-03-06T03:56:44.870Z,1007.48
2019-03-06T03:57:54.828Z,1007.44
2019-03-06T03:59:04.085Z,1007.46
2019-03-06T04:00:14.363Z,1007.42
2019-03-06T04:01:24.693Z,1007.45
2019-03-06T04:02:34.852Z,1007.44
2019-03-06T04:03:45.422Z,1007.49
2019-03-06T04:04:55.926Z,1007.48
2019-03-06T04:06:06.213Z,1007.45
2019-03-06T04:07:16.383Z,1007.49
2019-03-06T04:08:25.647Z,1007.48
2019-03-06T04:09:35.125Z,1007.47
2019-03-06T04:10:44.892Z,1007.47
2019-03-06T04:11:54.863Z,1007.46
2019-03-06T04:13:04.338Z,1007.46
2019-03-06T04:14:14.072Z,1007.47
2019-03-06T04:15:24.054Z,1007.48
2019-03-06T04:16:34.052Z,1007.43
2019-03-06T04:17:43.517Z,1007.44
2019-03-06T04:18:53.536Z,1007.4
2019-03-06T04:20:03.266Z,1007.39
2019-03-06T04:21:12.994Z,1007.36
2019-03-06T04:22:22.726Z,1007.38
2019-03-06T04:23:32.458Z,1007.32
2019-03-06T04:24:41.955Z,1007.32
2019-03-06T04:25:51.946Z,1007.32
2019-03-06T04:27:01.705Z,1007.34
2019-03-06T04:28:11.692Z,1007.32
2019-03-06T04:29:21.410Z,1007.37
2019-03-06T04:30:31.124Z,1007.3
2019-03-06T04:31:40.588Z,1007.29
2019-03-06T04:32:50.582Z,1007.29
2019-03-06T04:33:59.789Z,1007.29
2019-03-06T04:35:09.759Z,1007.26
2019-03-06T04:36:19.720Z,1007.25
2019-03-06T04:37:29.437Z,1007.22
2019-03-06T04:38:39.403Z,1007.25
2019-03-06T04:39:51.484Z,1007.28
2019-03-06T04:41:01.466Z,1007.28
2019-03-06T04:42:11.168Z,1007.27
2019-03-06T04:43:21.068Z,1007.27
2019-03-06T04:44:31.526Z,1007.28
2019-03-06T04:45:41.682Z,1007.27
2019-03-06T04:46:51.372Z,1007.3
2019-03-06T04:48:01.368Z,1007.28
2019-03-06T04:49:11.431Z,1007.24
2019-03-06T04:50:21.140Z,1007.24
2019-03-06T04:51:31.102Z,1007.19
2019-03-06T04:52:41.076Z,1007.18
2019-03-06T04:53:50.785Z,1007.15
2019-03-06T04:55:00.736Z,1007.15
2019-03-06T04:56:10.192Z,1007.12
2019-03-06T04:57:19.906Z,1007.11
2019-03-06T04:58:29.872Z,1007.08
2019-03-06T04:59:39.581Z,1007.08
2019-03-06T05:00:49.053Z,1007.1
2019-03-06T05:01:58.805Z,1007.07
2019-03-06T05:03:08.755Z,1007.08
2019-03-06T05:04:18.451Z,1007.13
2019-03-06T05:05:28.413Z,1007.14
2019-03-06T05:06:38.146Z,1007.16
2019-03-06T05:07:48.105Z,1007.18
2019-03-06T05:08:58.064Z,1007.18
2019-03-06T05:10:07.523Z,1007.22
2019-03-06T05:11:17.271Z,1007.17
2019-03-06T05:12:27.289Z,1007.19
2019-03-06T05:13:37.001Z,1007.17
2019-03-06T05:14:46.706Z,1007.13
2019-03-06T05:15:56.669Z,1007.14
2019-03-06T05:17:06.148Z,1007.05
2019-03-06T05:18:15.861Z,1007.1
2019-03-06T05:19:25.821Z,1007.14
2019-03-06T05:20:36.000Z,1007.13
2019-03-06T05:21:46.247Z,1007.1
2019-03-06T05:22:56.514Z,1007.09
2019-03-06T05:24:07.008Z,1007.09
2019-03-06T05:25:17.424Z,1007.06
2019-03-06T05:26:27.430Z,1007.07
2019-03-06T05:27:37.288Z,1007.06
2019-03-06T05:28:46.754Z,1007
2019-03-06T05:29:56.731Z,1007.03
2019-03-06T05:31:06.445Z,1007
2019-03-06T05:32:16.146Z,1006.98
2019-03-06T05:33:25.856Z,1006.99
2019-03-06T05:34:36.176Z,1006.96
2019-03-06T05:35:46.180Z,1006.9
2019-03-06T05:36:55.927Z,1006.91
2019-03-06T05:38:05.141Z,1006.87
2019-03-06T05:39:15.114Z,1006.85
2019-03-06T05:40:24.580Z,1006.79
2019-03-06T05:41:34.537Z,1006.79
2019-03-06T05:42:43.992Z,1006.79
2019-03-06T05:43:53.452Z,1006.72
2019-03-06T05:45:03.167Z,1006.7
2019-03-06T05:46:12.638Z,1006.67
2019-03-06T05:47:22.105Z,1006.69
2019-03-06T05:48:31.306Z,1006.67
2019-03-06T05:49:41.259Z,1006.66
2019-03-06T05:50:50.477Z,1006.66
2019-03-06T05:52:00.424Z,1006.69
2019-03-06T05:53:10.381Z,1006.67
2019-03-06T05:54:19.843Z,1006.62
2019-03-06T05:55:29.319Z,1006.7
2019-03-06T05:56:39.264Z,1006.64
2019-03-06T05:57:49.325Z,1006.6
2019-03-06T05:58:59.498Z,1006.66
2019-03-06T06:00:09.334Z,1006.66
2019-03-06T06:01:19.570Z,1006.65
2019-03-06T06:02:29.488Z,1006.72
2019-03-06T06:03:39.363Z,1006.68
2019-03-06T06:04:49.115Z,1006.66
2019-03-06T06:05:58.566Z,1006.71
2019-03-06T06:07:08.269Z,1006.69
2019-03-06T06:08:17.727Z,1006.69
2019-03-06T06:09:27.690Z,1006.61
2019-03-06T06:10:36.915Z,1006.64
2019-03-06T06:11:46.405Z,1006.65
2019-03-06T06:12:56.364Z,1006.64
2019-03-06T06:14:05.323Z,1006.62
2019-03-06T06:15:14.530Z,1006.63
2019-03-06T06:16:23.997Z,1006.6
2019-03-06T06:17:33.457Z,1006.59
2019-03-06T06:18:42.669Z,1006.62
2019-03-06T06:19:52.151Z,1006.57
2019-03-06T06:21:01.365Z,1006.57
2019-03-06T06:22:11.080Z,1006.59
2019-03-06T06:23:20.781Z,1006.58
2019-03-06T06:24:30.482Z,1006.61
2019-03-06T06:25:40.216Z,1006.55
2019-03-06T06:26:50.210Z,1006.56
2019-03-06T06:27:59.923Z,1006.51
2019-03-06T06:29:09.626Z,1006.49
2019-03-06T06:30:19.341Z,1006.43
2019-03-06T06:31:29.533Z,1006.39
2019-03-06T06:32:39.040Z,1006.43
2019-03-06T06:33:48.497Z,1006.4
2019-03-06T06:34:58.454Z,1006.4
2019-03-06T06:36:07.410Z,1006.39
2019-03-06T06:37:17.585Z,1006.39
2019-03-06T06:38:27.978Z,1006.4
2019-03-06T06:39:40.068Z,1006.35
2019-03-06T06:40:50.201Z,1006.34
2019-03-06T06:42:00.217Z,1006.21
2019-03-06T06:43:10.376Z,1006.14
2019-03-06T06:44:19.598Z,1006.07
2019-03-06T06:45:29.084Z,1006.04
2019-03-06T06:46:38.537Z,1006
2019-03-06T06:47:47.996Z,1005.99
2019-03-06T06:48:57.946Z,1005.92
2019-03-06T06:50:08.603Z,1005.93
2019-03-06T06:51:18.561Z,1005.87
2019-03-06T06:52:28.282Z,1005.87
2019-03-06T06:53:38.010Z,1005.87
2019-03-06T06:54:47.719Z,1005.82
2019-03-06T06:55:57.685Z,1005.87
2019-03-06T06:57:07.397Z,1005.91
2019-03-06T06:58:16.650Z,1005.88
2019-03-06T06:59:36.108Z,1005.84
2019-03-06T07:00:45.820Z,1005.82
2019-03-06T07:01:55.531Z,1005.83
2019-03-06T07:03:05.240Z,1005.8
2019-03-06T07:04:15.187Z,1005.75
2019-03-06T07:05:25.364Z,1005.78
2019-03-06T07:06:35.852Z,1005.76
2019-03-06T07:07:45.948Z,1005.7
2019-03-06T07:08:56.191Z,1005.67
2019-03-06T07:10:05.722Z,1005.67
2019-03-06T07:11:15.891Z,1005.64
2019-03-06T07:12:25.344Z,1005.7
2019-03-06T07:13:34.560Z,1005.73
2019-03-06T07:14:44.273Z,1005.73
2019-03-06T07:15:53.980Z,1005.77
2019-03-06T07:17:03.184Z,1005.76
2019-03-06T07:18:13.136Z,1005.73
2019-03-06T07:19:22.596Z,1005.8
2019-03-06T07:20:31.831Z,1005.81
2019-03-06T07:21:41.555Z,1005.72
2019-03-06T07:22:51.503Z,1005.74
2019-03-06T07:24:01.483Z,1005.75
2019-03-06T07:25:11.439Z,1005.71
2019-03-06T07:26:21.395Z,1005.68
2019-03-06T07:27:30.606Z,1005.57
2019-03-06T07:28:40.069Z,1005.63
2019-03-06T07:29:49.527Z,1005.57
2019-03-06T07:30:59.486Z,1005.62
2019-03-06T07:32:09.190Z,1005.64
2019-03-06T07:33:19.146Z,1005.56
2019-03-06T07:34:28.615Z,1005.57
2019-03-06T07:35:38.074Z,1005.54
2019-03-06T07:36:48.060Z,1005.54
2019-03-06T07:37:57.756Z,1005.52
2019-03-06T07:39:07.638Z,1005.5
2019-03-06T07:40:17.458Z,1005.46
2019-03-06T07:41:27.789Z,1005.42
2019-03-06T07:42:38.023Z,1005.39
2019-03-06T07:43:47.876Z,1005.39
2019-03-06T07:44:58.105Z,1005.44
2019-03-06T07:46:07.819Z,1005.38
2019-03-06T07:47:17.029Z,1005.47
2019-03-06T07:48:26.497Z,1005.45
2019-03-06T07:49:44.613Z,1005.52
2019-03-06T07:50:55.050Z,1005.49
2019-03-06T07:52:04.759Z,1005.51
2019-03-06T07:53:14.235Z,1005.52
2019-03-06T07:54:23.957Z,1005.48
2019-03-06T07:55:33.427Z,1005.46
2019-03-06T07:56:43.138Z,1005.49
2019-03-06T07:57:52.594Z,1005.42
2019-03-06T07:59:02.570Z,1005.49
2019-03-06T08:00:12.280Z,1005.48
2019-03-06T08:01:21.989Z,1005.46
2019-03-06T08:02:31.958Z,1005.44
2019-03-06T08:03:41.929Z,1005.36
2019-03-06T08:04:51.383Z,1005.31
2019-03-06T08:06:01.334Z,1005.26
2019-03-06T08:07:11.603Z,1005.25
2019-03-06T08:08:21.496Z,1005.27
2019-03-06T08:09:31.857Z,1005.24
2019-03-06T08:10:42.021Z,1005.13
2019-03-06T08:11:52.347Z,1005.18
2019-03-06T08:13:02.560Z,1005.16
2019-03-06T08:14:12.021Z,1005.13
2019-03-06T08:15:29.859Z,1005.07
2019-03-06T08:16:39.577Z,1005.03
2019-03-06T08:17:49.275Z,1005.04
2019-03-06T08:18:59.229Z,1004.99
2019-03-06T08:20:08.934Z,1004.94
2019-03-06T08:21:18.401Z,1004.95
2019-03-06T08:22:28.341Z,1004.9
2019-03-06T08:23:37.797Z,1004.9
2019-03-06T08:24:46.999Z,1004.9
2019-03-06T08:25:56.481Z,1004.91
2019-03-06T08:27:06.202Z,1004.9
2019-03-06T08:28:15.933Z,1004.88
2019-03-06T08:29:25.395Z,1004.88
2019-03-06T08:30:35.357Z,1004.77
2019-03-06T08:31:46.283Z,1004.79
2019-03-06T08:32:56.019Z,1004.76
2019-03-06T08:34:05.756Z,1004.79
2019-03-06T08:35:15.469Z,1004.76
2019-03-06T08:36:24.446Z,1004.76
2019-03-06T08:37:34.404Z,1004.75
2019-03-06T08:38:44.636Z,1004.79
2019-03-06T08:39:55.026Z,1004.75
2019-03-06T08:41:06.471Z,1004.76
2019-03-06T08:42:17.168Z,1004.72
2019-03-06T08:43:26.880Z,1004.73
2019-03-06T08:44:36.854Z,1004.72
2019-03-06T08:45:46.646Z,1004.75
2019-03-06T08:46:56.347Z,1004.75
2019-03-06T08:48:05.808Z,1004.8
2019-03-06T08:49:15.759Z,1004.75
2019-03-06T08:50:25.470Z,1004.72
2019-03-06T08:51:34.925Z,1004.73
2019-03-06T08:52:44.380Z,1004.74
2019-03-06T08:53:54.346Z,1004.71
2019-03-06T08:55:03.797Z,1004.74
2019-03-06T08:56:13.783Z,1004.72
2019-03-06T08:57:22.996Z,1004.75
2019-03-06T08:58:32.486Z,1004.71
2019-03-06T08:59:41.953Z,1004.7
2019-03-06T09:00:51.906Z,1004.68
2019-03-06T09:02:01.649Z,1004.69
2019-03-06T09:03:20.782Z,1004.71
2019-03-06T09:04:30.491Z,1004.62
2019-03-06T09:05:39.715Z,1004.63
2019-03-06T09:06:50.442Z,1004.64
2019-03-06T09:08:00.496Z,1004.57
2019-03-06T09:09:10.766Z,1004.57
2019-03-06T09:10:20.737Z,1004.63
2019-03-06T09:11:30.364Z,1004.59
2019-03-06T09:12:42.370Z,1004.58
2019-03-06T09:13:52.099Z,1004.56
2019-03-06T09:15:01.846Z,1004.57
2019-03-06T09:16:11.089Z,1004.47
2019-03-06T09:17:20.538Z,1004.43
2019-03-06T09:18:31.764Z,1004.4
2019-03-06T09:19:40.719Z,1004.39
2019-03-06T09:20:50.428Z,1004.36
2019-03-06T09:22:00.146Z,1004.3
2019-03-06T09:23:10.118Z,1004.29
2019-03-06T09:24:28.097Z,1004.32
2019-03-06T09:25:37.821Z,1004.26
2019-03-06T09:26:47.533Z,1004.24
2019-03-06T09:27:57.489Z,1004.26
2019-03-06T09:29:06.693Z,1004.16
2019-03-06T09:30:16.698Z,1004.18
2019-03-06T09:31:27.157Z,1004.15
2019-03-06T09:32:37.108Z,1004.08
2019-03-06T09:33:46.821Z,1004.08
2019-03-06T09:34:56.061Z,1004.04
2019-03-06T09:36:06.019Z,1004.07
2019-03-06T09:37:16.164Z,1004.1
2019-03-06T09:38:26.447Z,1004.05
2019-03-06T09:39:36.677Z,1004.02
2019-03-06T09:40:46.608Z,1004.01
2019-03-06T09:41:56.761Z,1003.98
2019-03-06T09:43:06.480Z,1004.02
2019-03-06T09:44:16.200Z,1003.97
2019-03-06T09:45:25.926Z,1003.92
2019-03-06T09:46:35.147Z,1003.96
2019-03-06T09:47:44.865Z,1003.85
2019-03-06T09:48:54.833Z,1003.83
2019-03-06T09:50:13.967Z,1003.8
2019-03-06T09:51:23.673Z,1003.73
2019-03-06T09:52:33.380Z,1003.71
2019-03-06T09:53:43.144Z,1003.68
2019-03-06T09:54:54.919Z,1003.66
2019-03-06T09:56:05.049Z,1003.65
2019-03-06T09:57:14.754Z,1003.64
2019-03-06T09:58:24.222Z,1003.64
2019-03-06T09:59:33.939Z,1003.61
2019-03-06T10:00:43.893Z,1003.58
2019-03-06T10:01:53.868Z,1003.53
2019-03-06T10:03:12.107Z,1003.53
2019-03-06T10:04:22.458Z,1003.42
2019-03-06T10:05:32.330Z,1003.39
2019-03-06T10:06:42.424Z,1003.33
2019-03-06T10:07:52.567Z,1003.3
2019-03-06T10:09:02.426Z,1003.35
2019-03-06T10:10:12.184Z,1003.33
2019-03-06T10:11:21.659Z,1003.29
2019-03-06T10:12:31.619Z,1003.3
2019-03-06T10:13:52.107Z,1003.33
2019-03-06T10:15:01.908Z,1003.32
2019-03-06T10:16:11.359Z,1003.27
2019-03-06T10:17:21.316Z,1003.28
2019-03-06T10:18:33.119Z,1003.25
2019-03-06T10:19:42.901Z,1003.23
2019-03-06T10:20:52.895Z,1003.31
2019-03-06T10:22:02.646Z,1003.25
2019-03-06T10:23:12.633Z,1003.24
2019-03-06T10:24:22.151Z,1003.16
2019-03-06T10:25:31.925Z,1003.13
2019-03-06T10:26:42.410Z,1003.13
2019-03-06T10:27:52.403Z,1003.04
2019-03-06T10:29:11.579Z,1003.02
2019-03-06T10:30:21.630Z,1003
2019-03-06T10:31:31.850Z,1002.97
2019-03-06T10:32:43.844Z,1003.03
2019-03-06T10:33:53.658Z,1002.96
2019-03-06T10:35:03.467Z,1003
2019-03-06T10:36:13.029Z,1002.93
2019-03-06T10:37:22.408Z,1002.89
2019-03-06T10:38:32.517Z,1002.85
2019-03-06T10:39:42.796Z,1002.88
2019-03-06T10:40:52.663Z,1002.81
2019-03-06T10:42:02.492Z,1002.78
2019-03-06T10:43:13.302Z,1002.82
2019-03-06T10:44:29.414Z,1002.74
2019-03-06T10:45:41.705Z,1002.71
2019-03-06T10:46:51.839Z,1002.55
2019-03-06T10:48:02.354Z,1002.61
2019-03-06T10:49:12.441Z,1002.62
2019-03-06T10:50:26.465Z,1002.56
2019-03-06T10:51:38.509Z,1002.57
2019-03-06T10:52:48.317Z,1002.51
2019-03-06T10:53:57.870Z,1002.49
2019-03-06T10:55:07.495Z,1002.45
2019-03-06T10:56:17.314Z,1002.46
2019-03-06T10:57:27.109Z,1002.51
2019-03-06T10:58:37.216Z,1002.49
2019-03-06T10:59:47.572Z,1002.46
2019-03-06T11:00:57.432Z,1002.47
2019-03-06T11:02:07.261Z,1002.43
2019-03-06T11:03:17.074Z,1002.51
2019-03-06T11:04:27.148Z,1002.47
2019-03-06T11:05:37.174Z,1002.48
2019-03-06T11:06:47.225Z,1002.45
2019-03-06T11:07:57.336Z,1002.42
2019-03-06T11:09:06.915Z,1002.45
2019-03-06T11:10:23.349Z,1002.35
2019-03-06T11:11:36.703Z,1002.31
2019-03-06T11:12:46.536Z,1002.31
2019-03-06T11:13:55.827Z,1002.27
2019-03-06T11:15:13.807Z,1002.23
2019-03-06T11:16:25.019Z,1002.19
2019-03-06T11:17:40.906Z,1002.18
2019-03-06T11:18:52.140Z,1002.19
2019-03-06T11:20:02.408Z,1002.15
2019-03-06T11:21:12.395Z,1002.16
2019-03-06T11:22:21.880Z,1002.14
2019-03-06T11:23:31.612Z,1002.11
2019-03-06T11:24:41.064Z,1002.1
2019-03-06T11:25:50.860Z,1002.07
2019-03-06T11:27:02.479Z,1002.1
2019-03-06T11:28:12.560Z,1002.08
2019-03-06T11:29:22.077Z,1001.99
2019-03-06T11:30:31.617Z,1002.01
2019-03-06T11:31:41.613Z,1001.94
2019-03-06T11:32:54.353Z,1001.91
2019-03-06T11:34:04.665Z,1001.93
2019-03-06T11:35:14.656Z,1001.96
2019-03-06T11:36:24.156Z,1001.96
2019-03-06T11:37:34.154Z,1001.91
2019-03-06T11:38:44.390Z,1001.93
2019-03-06T11:39:54.445Z,1001.84
2019-03-06T11:41:05.194Z,1001.86
2019-03-06T11:42:15.033Z,1001.79
2019-03-06T11:43:25.051Z,1001.77
2019-03-06T11:44:34.301Z,1001.67
2019-03-06T11:45:44.070Z,1001.67
2019-03-06T11:46:54.062Z,1001.64
2019-03-06T11:48:04.278Z,1001.68
2019-03-06T11:49:14.027Z,1001.56
2019-03-06T11:50:24.055Z,1001.55
2019-03-06T11:51:41.563Z,1001.5
2019-03-06T11:52:51.897Z,1001.44
2019-03-06T11:54:01.882Z,1001.39
2019-03-06T11:55:11.812Z,1001.36
2019-03-06T11:56:21.813Z,1001.35
2019-03-06T11:57:33.337Z,1001.4
2019-03-06T11:58:43.850Z,1001.3
2019-03-06T11:59:53.336Z,1001.23
2019-03-06T12:01:03.414Z,1001.24
2019-03-06T12:02:13.239Z,1001.24
2019-03-06T12:03:22.773Z,1001.2
2019-03-06T12:04:32.774Z,1001.14
2019-03-06T12:05:42.545Z,1001.07
2019-03-06T12:06:52.095Z,1001.01
2019-03-06T12:08:01.895Z,1000.9
2019-03-06T12:09:11.425Z,1000.85
2019-03-06T12:10:21.213Z,1000.86
2019-03-06T12:11:31.943Z,1000.85
2019-03-06T12:12:41.974Z,1000.75
2019-03-06T12:13:51.717Z,1000.84
2019-03-06T12:15:01.505Z,1000.76
2019-03-06T12:16:11.316Z,1000.8
2019-03-06T12:17:21.100Z,1000.69
2019-03-06T12:18:31.138Z,1000.63
2019-03-06T12:19:41.607Z,1000.68
2019-03-06T12:20:51.702Z,1000.66
2019-03-06T12:22:01.487Z,1000.69
2019-03-06T12:23:10.773Z,1000.54
2019-03-06T12:24:20.796Z,1000.55
2019-03-06T12:25:30.550Z,1000.5
2019-03-06T12:26:40.046Z,1000.52
2019-03-06T12:27:50.035Z,1000.55
2019-03-06T12:28:59.775Z,1000.52
2019-03-06T12:30:09.578Z,1000.51
2019-03-06T12:31:19.055Z,1000.43
2019-03-06T12:32:28.466Z,1000.47
2019-03-06T12:33:37.983Z,1000.46
2019-03-06T12:34:47.225Z,1000.52
2019-03-06T12:35:57.202Z,1000.46
2019-03-06T12:37:08.594Z,1000.45
2019-03-06T12:38:18.319Z,1000.44
2019-03-06T12:39:28.082Z,1000.37
2019-03-06T12:40:37.795Z,1000.28
2019-03-06T12:41:47.261Z,1000.24
2019-03-06T12:42:57.051Z,1000.2
2019-03-06T12:44:10.297Z,1000.1
2019-03-06T12:45:20.375Z,1000.1
2019-03-06T12:46:32.237Z,1000.07
2019-03-06T12:47:41.992Z,1000.03
2019-03-06T12:49:00.542Z,1000.13
2019-03-06T12:50:11.722Z,1000.1
2019-03-06T12:51:21.852Z,1000.04
2019-03-06T12:52:31.574Z,1000.04
2019-03-06T12:53:41.052Z,999.99
2019-03-06T12:54:51.041Z,999.99
2019-03-06T12:56:01.044Z,999.89
2019-03-06T12:57:10.831Z,999.88
2019-03-06T12:58:20.311Z,999.85
2019-03-06T12:59:31.213Z,999.81
2019-03-06T13:00:40.688Z,999.83
2019-03-06T13:01:50.693Z,999.87
2019-03-06T13:03:00.167Z,999.85
2019-03-06T13:04:09.918Z,999.83
2019-03-06T13:05:21.256Z,999.77
2019-03-06T13:06:31.023Z,999.69
2019-03-06T13:07:40.596Z,999.72
2019-03-06T13:08:50.957Z,999.64
2019-03-06T13:10:01.837Z,999.62
2019-03-06T13:11:11.619Z,999.6
2019-03-06T13:12:21.368Z,999.54
2019-03-06T13:13:35.376Z,999.5
2019-03-06T13:14:45.677Z,999.5
2019-03-06T13:15:55.217Z,999.52
2019-03-06T13:17:05.248Z,999.48
2019-03-06T13:18:14.781Z,999.45
2019-03-06T13:19:24.787Z,999.44
2019-03-06T13:20:34.534Z,999.41
2019-03-06T13:21:43.766Z,999.39
2019-03-06T13:22:53.541Z,999.37
2019-03-06T13:24:04.556Z,999.36
2019-03-06T13:25:14.366Z,999.33
2019-03-06T13:26:24.119Z,999.34
2019-03-06T13:27:33.890Z,999.32
2019-03-06T13:28:43.899Z,999.29
2019-03-06T13:30:02.340Z,999.3
2019-03-06T13:31:11.883Z,999.3
2019-03-06T13:32:21.913Z,999.25
2019-03-06T13:33:31.878Z,999.29
2019-03-06T13:34:50.270Z,999.27
2019-03-06T13:36:00.747Z,999.2
2019-03-06T13:37:10.354Z,999.18
2019-03-06T13:38:20.122Z,999.19
2019-03-06T13:39:30.162Z,999.14
2019-03-06T13:40:39.913Z,999.17
2019-03-06T13:41:49.677Z,999.08
2019-03-06T13:42:59.448Z,999.08
2019-03-06T13:44:09.458Z,999.02
2019-03-06T13:45:19.628Z,999
2019-03-06T13:46:29.389Z,998.93
2019-03-06T13:47:39.156Z,998.98
2019-03-06T13:48:48.909Z,998.86
2019-03-06T13:49:58.930Z,998.81
2019-03-06T13:51:08.462Z,998.77
2019-03-06T13:52:18.265Z,998.8
2019-03-06T13:53:28.270Z,998.78
2019-03-06T13:54:38.051Z,998.7
2019-03-06T13:55:49.872Z,998.82
2019-03-06T13:56:59.914Z,998.67
2019-03-06T13:58:09.687Z,998.73
2019-03-06T13:59:19.454Z,998.67
2019-03-06T14:00:29.468Z,998.66
2019-03-06T14:01:39.232Z,998.68
2019-03-06T14:02:48.999Z,998.69
2019-03-06T14:03:58.792Z,998.58
2019-03-06T14:05:08.829Z,998.58
2019-03-06T14:06:18.854Z,998.45
2019-03-06T14:07:28.394Z,998.43
2019-03-06T14:08:38.155Z,998.42
2019-03-06T14:09:47.670Z,998.41
2019-03-06T14:10:56.947Z,998.38
2019-03-06T14:12:06.696Z,998.31
2019-03-06T14:13:16.211Z,998.26